Time;durP1;ratioP1;P1;durP2;ratioP2;P2;SDS_P1;SDS_P2;PMS_P1;PMS_P2;Temp;Humidity;BMP_temperature;BMP_pressure;BME280_temperature;BME280_humidity;BME280_pressure;Samples;Min_cycle;Max_cycle;Signal;HPM_P1;HPM_P2
2022/03/05 00:01:17;;;;;;;21.30;12.60;;;;;;;;;;5095249;28;20229;-66
2022/03/05 00:03:45;;;;;;;18.50;10.13;;;;;;;;;;5094199;28;20271;-66
2022/03/05 00:06:12;;;;;;;15.90;10.88;;;;;;;;;;5095502;28;20289;-66
2022/03/05 00:08:39;;;;;;;17.38;11.05;;;;;;;;;;5095004;28;20247;-66
2022/03/05 00:11:07;;;;;;;21.33;10.65;;;;;;;;;;5094103;28;20666;-65
2022/03/05 00:13:36;;;;;;;20.60;12.35;;;;;;;;;;5095276;28;20225;-66
2022/03/05 00:16:04;;;;;;;20.48;10.43;;;;;;;;;;5095383;28;20201;-66
2022/03/05 00:18:31;;;;;;;23.20;11.20;;;;;;;;;;5095046;28;20622;-67
2022/03/05 00:20:58;;;;;;;19.60;11.43;;;;;;;;;;5095165;28;20528;-66
2022/03/05 00:23:26;;;;;;;17.90;11.32;;;;;;;;;;5095259;28;20585;-66
2022/03/05 00:25:53;;;;;;;19.52;11.27;;;;;;;;;;5095201;28;20197;-66
2022/03/05 00:28:20;;;;;;;22.50;12.10;;;;;;;;;;5094692;28;20296;-67
2022/03/05 00:30:49;;;;;;;16.30;9.68;;;;;;;;;;5094754;28;20244;-66
2022/03/05 00:33:19;;;;;;;16.00;10.27;;;;;;;;;;5094488;28;20197;-66
2022/03/05 00:35:46;;;;;;;26.40;11.10;;;;;;;;;;5095590;28;20565;-66
2022/03/05 00:38:14;;;;;;;17.45;9.18;;;;;;;;;;5094748;28;20225;-66
2022/03/05 00:40:41;;;;;;;19.63;12.05;;;;;;;;;;5095006;28;20193;-66
2022/03/05 00:43:08;;;;;;;25.35;12.75;;;;;;;;;;5094880;28;20228;-66
2022/03/05 00:45:36;;;;;;;19.58;10.95;;;;;;;;;;5094804;28;20232;-67
2022/03/05 00:48:05;;;;;;;19.65;10.80;;;;;;;;;;5094548;28;20232;-66
2022/03/05 00:50:32;;;;;;;18.17;10.10;;;;;;;;;;5094536;28;20753;-66
2022/03/05 00:52:59;;;;;;;19.25;11.07;;;;;;;;;;5094543;28;20569;-66
2022/03/05 00:55:27;;;;;;;19.25;10.07;;;;;;;;;;5095037;28;20247;-66
2022/03/05 00:57:54;;;;;;;16.75;10.65;;;;;;;;;;5094365;28;20276;-67
2022/03/05 01:00:21;;;;;;;19.65;9.88;;;;;;;;;;5095011;28;20193;-66
2022/03/05 01:02:48;;;;;;;17.30;9.82;;;;;;;;;;5094258;28;20253;-66
2022/03/05 01:05:17;;;;;;;22.98;9.05;;;;;;;;;;5094079;28;20280;-66
2022/03/05 01:07:44;;;;;;;16.45;10.02;;;;;;;;;;5094295;28;20276;-66
2022/03/05 01:10:11;;;;;;;15.30;8.77;;;;;;;;;;5094343;28;20194;-66
2022/03/05 01:12:39;;;;;;;19.80;9.93;;;;;;;;;;5094520;28;20286;-66
2022/03/05 01:15:07;;;;;;;18.77;10.88;;;;;;;;;;5094004;28;20198;-66
2022/03/05 01:17:34;;;;;;;15.75;9.93;;;;;;;;;;5093814;28;20246;-67
2022/03/05 01:20:01;;;;;;;19.35;11.07;;;;;;;;;;5093760;28;20199;-66
2022/03/05 01:22:30;;;;;;;18.35;9.60;;;;;;;;;;5094049;28;20285;-66
2022/03/05 01:24:57;;;;;;;19.33;11.50;;;;;;;;;;5093962;28;20255;-66
2022/03/05 01:27:25;;;;;;;21.08;10.60;;;;;;;;;;5094031;28;20194;-66
2022/03/05 01:29:52;;;;;;;14.23;9.13;;;;;;;;;;5093910;28;20284;-66
2022/03/05 01:32:19;;;;;;;17.25;10.63;;;;;;;;;;5093940;28;20284;-66
2022/03/05 01:34:47;;;;;;;17.58;10.55;;;;;;;;;;5093815;28;20266;-67
2022/03/05 01:37:14;;;;;;;18.08;10.73;;;;;;;;;;5093576;28;20288;-66
2022/03/05 01:39:43;;;;;;;21.63;11.50;;;;;;;;;;5093509;28;20200;-66
2022/03/05 01:42:10;;;;;;;16.25;10.90;;;;;;;;;;5093820;28;20229;-67
2022/03/05 01:44:37;;;;;;;15.20;9.05;;;;;;;;;;5093316;28;20675;-66
2022/03/05 01:47:06;;;;;;;14.30;10.05;;;;;;;;;;5093470;28;20659;-67
2022/03/05 01:49:33;;;;;;;20.10;10.60;;;;;;;;;;5093648;28;20557;-66
2022/03/05 01:52:00;;;;;;;16.27;9.30;;;;;;;;;;5093692;28;20200;-66
2022/03/05 01:54:28;;;;;;;15.98;10.00;;;;;;;;;;5093601;28;20284;-66
2022/03/05 01:56:56;;;;;;;15.98;10.40;;;;;;;;;;5093685;28;20589;-66
2022/03/05 01:59:24;;;;;;;23.15;10.70;;;;;;;;;;5093719;28;20203;-66
2022/03/05 02:01:51;;;;;;;19.08;11.40;;;;;;;;;;5093356;28;20650;-66
2022/03/05 02:04:18;;;;;;;20.85;10.82;;;;;;;;;;5093527;28;20685;-67
2022/03/05 02:06:46;;;;;;;24.70;12.38;;;;;;;;;;5093617;28;20280;-66
2022/03/05 02:09:13;;;;;;;23.77;12.18;;;;;;;;;;5093197;28;20665;-66
2022/03/05 02:11:41;;;;;;;15.60;10.93;;;;;;;;;;5093202;28;20261;-66
2022/03/05 02:14:09;;;;;;;17.98;10.57;;;;;;;;;;5093134;28;20219;-66
2022/03/05 02:16:37;;;;;;;22.30;11.95;;;;;;;;;;5093489;28;20212;-66
2022/03/05 02:19:05;;;;;;;18.45;10.50;;;;;;;;;;5093104;28;20190;-66
2022/03/05 02:21:34;;;;;;;17.15;10.90;;;;;;;;;;5093183;28;20218;-66
2022/03/05 02:24:01;;;;;;;18.63;12.15;;;;;;;;;;5093245;28;20228;-66
2022/03/05 02:26:28;;;;;;;22.10;10.70;;;;;;;;;;5095053;28;20235;-67
2022/03/05 02:28:56;;;;;;;26.13;12.85;;;;;;;;;;5097572;28;20280;-66
2022/03/05 02:31:23;;;;;;;24.50;12.57;;;;;;;;;;5097281;28;20194;-66
2022/03/05 02:33:52;;;;;;;27.30;12.85;;;;;;;;;;5097285;28;20716;-67
2022/03/05 02:36:20;;;;;;;17.02;11.02;;;;;;;;;;5097150;28;20204;-66
2022/03/05 02:38:48;;;;;;;24.95;11.85;;;;;;;;;;5096901;28;20659;-66
2022/03/05 02:41:18;;;;;;;18.38;11.60;;;;;;;;;;5096616;28;20239;-66
2022/03/05 02:43:45;;;;;;;21.58;11.45;;;;;;;;;;5096837;28;20291;-66
2022/03/05 02:46:12;;;;;;;22.00;11.90;;;;;;;;;;5096878;28;20221;-66
2022/03/05 02:48:40;;;;;;;25.08;12.32;;;;;;;;;;5097038;28;20194;-66
2022/03/05 02:51:07;;;;;;;23.23;11.38;;;;;;;;;;5096587;28;20225;-66
2022/03/05 02:53:35;;;;;;;20.83;11.18;;;;;;;;;;5097510;28;20284;-66
2022/03/05 02:56:05;;;;;;;23.52;11.07;;;;;;;;;;5096460;28;20201;-66
2022/03/05 02:58:32;;;;;;;21.35;12.02;;;;;;;;;;5096508;28;20654;-66
2022/03/05 03:00:59;;;;;;;21.90;12.93;;;;;;;;;;5096706;28;20201;-67
2022/03/05 03:03:26;;;;;;;21.45;11.77;;;;;;;;;;5096699;28;20197;-66
2022/03/05 03:05:53;;;;;;;23.50;12.45;;;;;;;;;;5096581;28;20568;-66
2022/03/05 03:08:21;;;;;;;22.27;12.25;;;;;;;;;;5096292;28;20232;-66
2022/03/05 03:10:48;;;;;;;20.95;12.18;;;;;;;;;;5096193;28;20225;-67
2022/03/05 03:13:16;;;;;;;28.52;13.63;;;;;;;;;;5096801;28;20594;-67
2022/03/05 03:15:44;;;;;;;23.40;13.65;;;;;;;;;;5096470;28;20284;-67
2022/03/05 03:18:11;;;;;;;24.17;13.15;;;;;;;;;;5096376;28;20200;-66
2022/03/05 03:20:38;;;;;;;25.85;11.52;;;;;;;;;;5096286;28;20618;-67
2022/03/05 03:23:05;;;;;;;25.35;12.77;;;;;;;;;;5096709;28;20190;-67
2022/03/05 03:25:33;;;;;;;23.83;12.70;;;;;;;;;;5096168;28;20259;-66
2022/03/05 03:28:00;;;;;;;39.72;14.13;;;;;;;;;;5096254;28;20193;-67
2022/03/05 03:30:28;;;;;;;25.95;13.13;;;;;;;;;;5096420;28;20203;-66
2022/03/05 03:32:56;;;;;;;30.85;13.65;;;;;;;;;;5095822;28;20189;-66
2022/03/05 03:35:23;;;;;;;26.23;13.32;;;;;;;;;;5095965;28;20303;-67
2022/03/05 03:37:50;;;;;;;24.67;12.95;;;;;;;;;;5095316;28;20571;-66
2022/03/05 03:40:19;;;;;;;30.10;13.63;;;;;;;;;;5096254;28;20193;-66
2022/03/05 03:42:47;;;;;;;32.97;14.60;;;;;;;;;;5095958;28;20194;-67
2022/03/05 03:45:15;;;;;;;25.15;13.07;;;;;;;;;;5095861;28;20210;-66
2022/03/05 03:47:48;;;;;;;26.45;14.30;;;;;;;;;;5096266;28;20193;-66
2022/03/05 03:50:16;;;;;;;22.27;11.75;;;;;;;;;;5096072;28;20189;-67
2022/03/05 03:52:43;;;;;;;25.83;12.85;;;;;;;;;;5095478;28;20261;-67
2022/03/05 03:55:12;;;;;;;27.42;12.75;;;;;;;;;;5096217;28;20197;-67
2022/03/05 03:57:40;;;;;;;25.70;13.80;;;;;;;;;;5096063;28;20251;-67
2022/03/05 04:00:08;;;;;;;29.73;14.43;;;;;;;;;;5095716;28;20209;-66
2022/03/05 04:02:36;;;;;;;23.42;12.65;;;;;;;;;;5095729;28;20197;-66
2022/03/05 04:05:04;;;;;;;28.02;13.45;;;;;;;;;;5095472;28;20294;-66
2022/03/05 04:10:17;;;;;;;21.92;13.27;;;;;;;;;;5095304;28;20197;-66
2022/03/05 04:12:44;;;;;;;24.58;13.13;;;;;;;;;;5095493;28;20222;-66
2022/03/05 04:15:12;;;;;;;30.45;13.95;;;;;;;;;;5095422;28;20646;-66
2022/03/05 04:17:39;;;;;;;24.88;13.32;;;;;;;;;;5095258;28;20197;-66
2022/03/05 04:20:08;;;;;;;29.13;13.80;;;;;;;;;;5095256;28;20193;-66
2022/03/05 04:22:36;;;;;;;21.30;13.23;;;;;;;;;;5094751;28;20285;-66
2022/03/05 04:25:03;;;;;;;28.05;14.70;;;;;;;;;;5095082;28;20252;-67
2022/03/05 04:27:31;;;;;;;29.13;14.32;;;;;;;;;;5094708;28;20246;-66
2022/03/05 04:29:58;;;;;;;34.78;16.00;;;;;;;;;;5094756;28;20201;-65
2022/03/05 04:32:25;;;;;;;28.02;13.65;;;;;;;;;;5094855;28;20193;-66
2022/03/05 04:34:52;;;;;;;37.90;14.32;;;;;;;;;;5094934;28;20225;-66
2022/03/05 04:37:21;;;;;;;29.02;15.68;;;;;;;;;;5094825;28;20200;-66
2022/03/05 04:39:48;;;;;;;30.05;14.48;;;;;;;;;;5095156;28;20194;-66
2022/03/05 04:42:15;;;;;;;27.80;14.40;;;;;;;;;;5094864;28;20221;-67
2022/03/05 04:44:42;;;;;;;25.35;13.82;;;;;;;;;;5094415;28;20224;-66
2022/03/05 04:47:10;;;;;;;31.05;12.32;;;;;;;;;;5094885;28;20194;-66
2022/03/05 04:49:37;;;;;;;34.70;16.65;;;;;;;;;;5094070;28;20710;-66
2022/03/05 04:52:04;;;;;;;27.30;14.43;;;;;;;;;;5094570;28;20197;-65
2022/03/05 04:54:33;;;;;;;30.30;15.60;;;;;;;;;;5094586;28;20286;-65
2022/03/05 04:57:00;;;;;;;31.02;14.05;;;;;;;;;;5094479;28;20300;-66
2022/03/05 04:59:27;;;;;;;28.60;14.35;;;;;;;;;;5094518;28;20228;-66
2022/03/05 05:01:56;;;;;;;31.67;14.75;;;;;;;;;;5093985;28;20288;-66
2022/03/05 05:04:23;;;;;;;28.30;14.48;;;;;;;;;;5094040;28;20213;-66
2022/03/05 05:06:50;;;;;;;35.75;16.85;;;;;;;;;;5094595;28;20199;-67
2022/03/05 05:09:18;;;;;;;32.20;14.80;;;;;;;;;;5094189;28;20194;-67
2022/03/05 05:11:46;;;;;;;30.77;15.45;;;;;;;;;;5094112;28;20417;-66
2022/03/05 05:14:13;;;;;;;34.78;15.43;;;;;;;;;;5094263;28;20292;-65
2022/03/05 05:16:41;;;;;;;34.50;15.70;;;;;;;;;;5093819;28;20193;-69
2022/03/05 05:19:27;;;;;;;32.22;16.35;;;;;;;;;;5094165;28;20205;-69
2022/03/05 05:21:55;;;;;;;38.90;16.67;;;;;;;;;;5093736;28;20273;-68
2022/03/05 05:24:23;;;;;;;35.05;16.60;;;;;;;;;;5093666;28;20218;-69
2022/03/05 05:26:51;;;;;;;35.42;16.25;;;;;;;;;;5093656;28;20197;-69
2022/03/05 05:29:19;;;;;;;34.65;15.73;;;;;;;;;;5093403;28;20200;-67
2022/03/05 05:31:46;;;;;;;35.10;15.95;;;;;;;;;;5093054;28;20233;-69
2022/03/05 05:34:13;;;;;;;33.40;15.60;;;;;;;;;;5093010;28;20193;-68
2022/03/05 05:36:40;;;;;;;38.95;16.70;;;;;;;;;;5093249;28;20277;-69
2022/03/05 05:39:08;;;;;;;35.17;16.60;;;;;;;;;;5093269;28;20281;-69
2022/03/05 05:41:35;;;;;;;31.17;16.90;;;;;;;;;;5093393;28;20293;-69
2022/03/05 05:44:04;;;;;;;32.05;15.50;;;;;;;;;;5093351;28;20292;-69
2022/03/05 05:46:32;;;;;;;44.05;16.58;;;;;;;;;;5093419;28;20207;-68
2022/03/05 05:48:59;;;;;;;41.25;17.65;;;;;;;;;;5093492;28;20612;-68
2022/03/05 05:51:27;;;;;;;34.90;16.30;;;;;;;;;;5093742;28;20285;-68
2022/03/05 05:53:54;;;;;;;33.72;15.52;;;;;;;;;;5093634;28;20201;-69
2022/03/05 05:56:21;;;;;;;39.40;17.50;;;;;;;;;;5093795;28;20200;-69
2022/03/05 05:58:49;;;;;;;39.00;17.02;;;;;;;;;;5093529;28;20618;-69
2022/03/05 06:01:18;;;;;;;29.95;16.02;;;;;;;;;;5094959;28;20650;-68
2022/03/05 06:03:45;;;;;;;31.83;16.02;;;;;;;;;;5097586;28;20192;-69
2022/03/05 06:06:13;;;;;;;30.98;15.20;;;;;;;;;;5097224;28;20312;-69
2022/03/05 06:08:40;;;;;;;37.90;16.50;;;;;;;;;;5097375;28;20193;-68
2022/03/05 06:11:07;;;;;;;35.47;15.75;;;;;;;;;;5097683;28;20221;-69
2022/03/05 06:13:35;;;;;;;32.50;16.02;;;;;;;;;;5097608;28;20224;-68
2022/03/05 06:16:02;;;;;;;40.25;18.33;;;;;;;;;;5098033;28;20623;-69
2022/03/05 06:18:30;;;;;;;41.35;17.50;;;;;;;;;;5097146;28;20239;-68
2022/03/05 06:20:58;;;;;;;40.53;16.35;;;;;;;;;;5097391;28;20661;-69
2022/03/05 06:23:25;;;;;;;37.40;16.67;;;;;;;;;;5097099;28;20673;-68
2022/03/05 06:25:53;;;;;;;32.33;13.93;;;;;;;;;;5097283;28;20213;-68
2022/03/05 06:28:20;;;;;;;30.23;15.88;;;;;;;;;;5096915;28;20190;-68
2022/03/05 06:30:48;;;;;;;34.97;16.58;;;;;;;;;;5097255;28;20288;-68
2022/03/05 06:33:15;;;;;;;35.25;16.52;;;;;;;;;;5097338;28;20200;-68
2022/03/05 06:35:43;;;;;;;30.20;15.20;;;;;;;;;;5096876;28;20201;-68
2022/03/05 06:38:10;;;;;;;31.30;15.48;;;;;;;;;;5097161;28;20189;-68
2022/03/05 06:40:38;;;;;;;41.58;16.27;;;;;;;;;;5096899;28;20221;-68
2022/03/05 06:43:05;;;;;;;37.17;16.08;;;;;;;;;;5097563;28;20190;-68
2022/03/05 06:45:32;;;;;;;24.73;14.20;;;;;;;;;;5097043;28;20578;-68
2022/03/05 06:48:00;;;;;;;36.08;16.17;;;;;;;;;;5096047;28;20212;-70
2022/03/05 06:50:27;;;;;;;40.90;16.65;;;;;;;;;;5096966;28;20194;-68
2022/03/05 06:52:55;;;;;;;33.35;17.98;;;;;;;;;;5096832;28;20284;-68
2022/03/05 06:55:23;;;;;;;34.65;16.70;;;;;;;;;;5096611;28;20292;-68
2022/03/05 06:57:51;;;;;;;37.47;15.52;;;;;;;;;;5097225;28;20281;-69
2022/03/05 07:00:19;;;;;;;32.67;16.83;;;;;;;;;;5096916;28;20229;-69
2022/03/05 07:02:46;;;;;;;35.05;16.92;;;;;;;;;;5096943;28;20552;-69
2022/03/05 07:05:14;;;;;;;44.25;17.30;;;;;;;;;;5096339;28;20210;-68
2022/03/05 07:07:41;;;;;;;34.10;16.85;;;;;;;;;;5095844;28;20232;-68
2022/03/05 07:10:11;;;;;;;31.70;15.05;;;;;;;;;;5096440;28;20674;-69
2022/03/05 07:12:38;;;;;;;43.25;19.73;;;;;;;;;;5096280;28;20308;-69
2022/03/05 07:15:06;;;;;;;37.40;16.10;;;;;;;;;;5096169;28;20207;-69
2022/03/05 07:17:33;;;;;;;33.00;16.20;;;;;;;;;;5096707;28;20189;-71
2022/03/05 07:20:01;;;;;;;31.70;17.08;;;;;;;;;;5096420;28;20247;-68
2022/03/05 07:22:28;;;;;;;34.90;16.58;;;;;;;;;;5096109;28;20195;-69
2022/03/05 07:24:55;;;;;;;43.30;17.05;;;;;;;;;;5096168;28;20253;-71
2022/03/05 07:27:24;;;;;;;37.95;16.80;;;;;;;;;;5095412;28;20228;-69
2022/03/05 07:29:51;;;;;;;33.70;18.00;;;;;;;;;;5095596;28;20231;-69
2022/03/05 07:32:18;;;;;;;38.90;17.02;;;;;;;;;;5096466;28;20197;-69
2022/03/05 07:34:45;;;;;;;34.00;17.75;;;;;;;;;;5096287;28;20197;-69
2022/03/05 07:37:13;;;;;;;32.17;15.95;;;;;;;;;;5095889;28;20676;-69
2022/03/05 07:39:40;;;;;;;34.00;16.33;;;;;;;;;;5095276;28;20638;-69
2022/03/05 07:42:08;;;;;;;38.63;16.63;;;;;;;;;;5095569;28;20284;-69
2022/03/05 07:44:37;;;;;;;36.35;17.13;;;;;;;;;;5095724;28;20208;-70
2022/03/05 07:47:04;;;;;;;34.72;16.45;;;;;;;;;;5095275;28;20225;-70
2022/03/05 07:49:32;;;;;;;43.08;17.60;;;;;;;;;;5095223;28;20197;-70
2022/03/05 07:51:59;;;;;;;38.30;18.00;;;;;;;;;;5095416;28;20736;-69
2022/03/05 07:54:27;;;;;;;36.15;16.58;;;;;;;;;;5095261;28;20282;-69
2022/03/05 07:56:54;;;;;;;36.30;19.13;;;;;;;;;;5095695;28;20224;-69
2022/03/05 07:59:22;;;;;;;33.30;16.70;;;;;;;;;;5095185;28;20669;-68
2022/03/05 08:01:50;;;;;;;35.80;17.00;;;;;;;;;;5095145;28;20225;-69
2022/03/05 08:04:17;;;;;;;36.75;17.98;;;;;;;;;;5095818;28;20254;-69
2022/03/05 08:06:45;;;;;;;36.50;18.60;;;;;;;;;;5095392;28;20232;-68
2022/03/05 08:09:12;;;;;;;37.67;16.35;;;;;;;;;;5095637;28;20613;-68
2022/03/05 08:11:39;;;;;;;35.88;15.63;;;;;;;;;;5095432;28;20319;-69
2022/03/05 08:14:06;;;;;;;39.25;20.52;;;;;;;;;;5095315;28;20236;-69
2022/03/05 08:16:34;;;;;;;37.28;16.48;;;;;;;;;;5095018;28;20718;-69
2022/03/05 08:19:02;;;;;;;40.25;17.25;;;;;;;;;;5094697;28;20221;-69
2022/03/05 08:21:29;;;;;;;34.15;17.35;;;;;;;;;;5094943;28;20290;-69
2022/03/05 08:23:57;;;;;;;33.83;18.65;;;;;;;;;;5094335;28;20205;-69
2022/03/05 08:26:24;;;;;;;38.53;18.25;;;;;;;;;;5094939;28;20217;-69
2022/03/05 08:28:52;;;;;;;33.65;16.88;;;;;;;;;;5094965;28;20247;-69
2022/03/05 08:31:19;;;;;;;29.63;17.20;;;;;;;;;;5095000;28;20324;-68
2022/03/05 08:33:47;;;;;;;35.65;17.90;;;;;;;;;;5095217;28;20650;-68
2022/03/05 08:36:15;;;;;;;34.58;17.58;;;;;;;;;;5094574;28;20228;-69
2022/03/05 08:38:42;;;;;;;37.67;18.00;;;;;;;;;;5094843;28;20280;-69
2022/03/05 08:41:10;;;;;;;32.80;15.95;;;;;;;;;;5094930;28;20194;-69
2022/03/05 08:43:37;;;;;;;41.25;17.88;;;;;;;;;;5094776;28;20202;-69
2022/03/05 08:46:05;;;;;;;36.63;16.15;;;;;;;;;;5094296;28;20218;-68
2022/03/05 08:48:33;;;;;;;31.70;17.67;;;;;;;;;;5094719;28;20219;-68
2022/03/05 08:51:00;;;;;;;31.63;17.23;;;;;;;;;;5094253;28;20197;-68
2022/03/05 08:53:28;;;;;;;28.35;16.63;;;;;;;;;;5094617;28;20288;-69
2022/03/05 08:55:56;;;;;;;39.97;17.50;;;;;;;;;;5094439;28;20281;-68
2022/03/05 08:58:23;;;;;;;35.65;18.15;;;;;;;;;;5094146;28;20284;-70
2022/03/05 09:00:51;;;;;;;40.80;17.38;;;;;;;;;;5093999;28;20286;-69
2022/03/05 09:03:18;;;;;;;35.38;19.05;;;;;;;;;;5094433;28;20288;-69
2022/03/05 09:05:46;;;;;;;30.63;16.75;;;;;;;;;;5094229;28;20309;-69
2022/03/05 09:08:14;;;;;;;34.28;18.30;;;;;;;;;;5094317;28;20193;-69
2022/03/05 09:10:42;;;;;;;39.92;17.65;;;;;;;;;;5093748;28;20284;-68
2022/03/05 09:13:10;;;;;;;30.63;16.63;;;;;;;;;;5093946;28;20181;-69
2022/03/05 09:15:37;;;;;;;31.40;17.35;;;;;;;;;;5094106;28;20293;-69
2022/03/05 09:18:04;;;;;;;34.83;18.60;;;;;;;;;;5094249;28;20608;-69
2022/03/05 09:20:31;;;;;;;34.92;17.60;;;;;;;;;;5094051;28;20585;-68
2022/03/05 09:23:01;;;;;;;36.67;16.67;;;;;;;;;;5094695;28;20625;-69
2022/03/05 09:25:28;;;;;;;34.45;17.77;;;;;;;;;;5093582;28;20194;-69
2022/03/05 09:27:57;;;;;;;39.63;18.48;;;;;;;;;;5093695;28;20735;-69
2022/03/05 09:30:24;;;;;;;34.20;16.35;;;;;;;;;;5094265;28;20193;-69
2022/03/05 09:32:52;;;;;;;35.65;17.38;;;;;;;;;;5094243;28;20195;-69
2022/03/05 09:35:19;;;;;;;41.47;19.27;;;;;;;;;;5093520;28;20190;-69
2022/03/05 09:37:46;;;;;;;32.97;17.98;;;;;;;;;;5093835;28;20194;-69
2022/03/05 09:40:14;;;;;;;29.25;16.40;;;;;;;;;;5093858;28;20194;-70
2022/03/05 09:42:42;;;;;;;29.35;16.27;;;;;;;;;;5093521;28;20204;-69
2022/03/05 09:45:11;;;;;;;30.85;18.05;;;;;;;;;;5093696;28;20289;-69
2022/03/05 09:47:39;;;;;;;30.88;16.88;;;;;;;;;;5093358;28;20258;-69
2022/03/05 09:50:07;;;;;;;32.92;15.43;;;;;;;;;;5093231;28;20199;-69
2022/03/05 09:52:34;;;;;;;31.33;17.83;;;;;;;;;;5093749;28;20285;-68
2022/03/05 09:55:02;;;;;;;31.02;18.40;;;;;;;;;;5094217;28;20561;-69
2022/03/05 09:57:29;;;;;;;29.73;18.13;;;;;;;;;;5093680;28;20240;-69
2022/03/05 09:59:56;;;;;;;31.00;17.02;;;;;;;;;;5094217;28;20550;-68
2022/03/05 10:02:25;;;;;;;34.85;15.98;;;;;;;;;;5093535;28;20226;-69
2022/03/05 10:04:52;;;;;;;32.53;18.52;;;;;;;;;;5093293;28;20718;-69
2022/03/05 10:07:21;;;;;;;32.25;17.25;;;;;;;;;;5093420;28;20214;-70
2022/03/05 10:09:49;;;;;;;31.65;17.80;;;;;;;;;;5093530;28;20200;-69
2022/03/05 10:12:30;;;;;;;30.55;17.05;;;;;;;;;;5092987;28;20223;-68
2022/03/05 10:15:07;;;;;;;29.30;16.85;;;;;;;;;;5093364;28;20268;-70
2022/03/05 10:17:49;;;;;;;30.08;17.15;;;;;;;;;;5093388;28;20630;-69
2022/03/05 10:20:17;;;;;;;35.78;17.70;;;;;;;;;;5093354;28;20273;-72
2022/03/05 10:22:52;;;;;;;31.65;17.02;;;;;;;;;;5093158;28;20281;-66
2022/03/05 10:25:28;;;;;;;32.03;17.83;;;;;;;;;;5093665;28;20216;-67
2022/03/05 10:28:00;;;;;;;32.33;17.10;;;;;;;;;;5093181;28;20237;-69
2022/03/05 10:30:31;;;;;;;33.83;16.50;;;;;;;;;;5092968;28;20659;-68
2022/03/05 10:33:00;;;;;;;34.40;18.15;;;;;;;;;;5093254;28;20200;-68
2022/03/05 10:35:27;;;;;;;29.65;15.48;;;;;;;;;;5093075;28;20217;-67
2022/03/05 10:37:55;;;;;;;29.83;16.17;;;;;;;;;;5092106;28;20501;-67
2022/03/05 10:40:32;;;;;;;33.25;16.00;;;;;;;;;;5092615;28;20236;-68
2022/03/05 10:43:01;;;;;;;34.15;16.35;;;;;;;;;;5092683;28;20280;-67
2022/03/05 10:45:29;;;;;;;32.05;15.93;;;;;;;;;;5092737;28;20191;-68
2022/03/05 10:47:57;;;;;;;32.38;18.10;;;;;;;;;;5095196;28;20224;-68
2022/03/05 10:50:27;;;;;;;32.95;17.90;;;;;;;;;;5096055;28;20207;-67
2022/03/05 10:52:55;;;;;;;30.10;17.60;;;;;;;;;;5096422;28;20677;-68
2022/03/05 10:55:23;;;;;;;33.70;17.63;;;;;;;;;;5096160;28;20692;-68
2022/03/05 10:57:57;;;;;;;31.20;17.05;;;;;;;;;;5096125;28;20664;-68
2022/03/05 11:00:24;;;;;;;28.98;15.98;;;;;;;;;;5096289;28;20237;-67
2022/03/05 11:02:51;;;;;;;28.77;16.20;;;;;;;;;;5096587;28;20221;-69
2022/03/05 11:05:20;;;;;;;29.77;16.70;;;;;;;;;;5096207;28;20281;-68
2022/03/05 11:07:50;;;;;;;28.02;18.15;;;;;;;;;;5096106;28;20214;-69
2022/03/05 11:10:18;;;;;;;28.25;17.02;;;;;;;;;;5096907;28;20216;-68
2022/03/05 11:12:51;;;;;;;28.52;15.63;;;;;;;;;;5095927;28;20225;-68
2022/03/05 11:15:19;;;;;;;29.85;16.73;;;;;;;;;;5095919;28;20207;-68
2022/03/05 11:17:46;;;;;;;27.35;16.25;;;;;;;;;;5095735;28;20225;-69
2022/03/05 11:20:14;;;;;;;26.48;17.27;;;;;;;;;;5096443;28;20213;-68
2022/03/05 11:22:53;;;;;;;32.13;16.27;;;;;;;;;;5095932;28;20253;-69
2022/03/05 11:25:22;;;;;;;31.98;18.00;;;;;;;;;;5096231;28;20571;-68
2022/03/05 11:27:53;;;;;;;30.13;18.45;;;;;;;;;;5095665;28;20217;-68
2022/03/05 11:30:20;;;;;;;29.52;16.90;;;;;;;;;;5095811;28;20209;-68
2022/03/05 11:32:47;;;;;;;38.78;19.40;;;;;;;;;;5096086;28;20218;-67
2022/03/05 11:35:25;;;;;;;27.17;18.27;;;;;;;;;;5095633;28;20198;-68
2022/03/05 11:37:54;;;;;;;32.65;17.73;;;;;;;;;;5095801;28;20194;-69
2022/03/05 11:40:42;;;;;;;27.90;16.50;;;;;;;;;;5096038;28;20290;-69
2022/03/05 11:43:19;;;;;;;30.67;17.08;;;;;;;;;;5091071;28;20199;-68
2022/03/05 11:45:50;;;;;;;27.20;17.00;;;;;;;;;;5096750;28;20191;-67
2022/03/05 11:48:27;;;;;;;24.92;15.25;;;;;;;;;;5095431;28;20223;-68
2022/03/05 11:50:55;;;;;;;29.33;17.27;;;;;;;;;;5096109;28;20188;-68
2022/03/05 11:53:24;;;;;;;27.48;17.95;;;;;;;;;;5095388;28;20234;-68
2022/03/05 11:55:51;;;;;;;29.17;17.13;;;;;;;;;;5095106;28;20281;-68
2022/03/05 11:58:35;;;;;;;26.73;17.92;;;;;;;;;;5094294;28;20299;-68
2022/03/05 12:01:21;;;;;;;28.63;16.73;;;;;;;;;;5095523;28;20198;-68
2022/03/05 12:03:52;;;;;;;29.30;18.42;;;;;;;;;;5095082;28;20194;-68
2022/03/05 12:06:19;;;;;;;30.45;16.95;;;;;;;;;;5095518;28;20196;-67
2022/03/05 12:08:53;;;;;;;30.38;15.45;;;;;;;;;;5094888;28;20292;-68
2022/03/05 12:11:21;;;;;;;28.92;16.92;;;;;;;;;;5095368;28;20264;-68
2022/03/05 12:13:51;;;;;;;27.98;17.02;;;;;;;;;;5095337;28;20210;-68
2022/03/05 12:16:20;;;;;;;26.27;17.90;;;;;;;;;;5094965;28;20184;-68
2022/03/05 12:18:48;;;;;;;30.33;16.55;;;;;;;;;;5094995;28;20202;-68
2022/03/05 12:21:27;;;;;;;26.27;16.30;;;;;;;;;;5095170;28;20199;-68
2022/03/05 12:24:05;;;;;;;26.33;15.68;;;;;;;;;;5095154;28;20706;-68
2022/03/05 12:26:37;;;;;;;27.58;16.88;;;;;;;;;;5095157;28;20223;-68
2022/03/05 12:29:05;;;;;;;28.23;16.70;;;;;;;;;;5094754;28;20197;-68
2022/03/05 12:31:32;;;;;;;33.97;17.88;;;;;;;;;;5094729;28;20294;-68
2022/03/05 12:34:00;;;;;;;28.83;17.33;;;;;;;;;;5094717;28;20238;-69
2022/03/05 12:36:27;;;;;;;29.63;17.33;;;;;;;;;;5094159;28;20202;-68
2022/03/05 12:38:55;;;;;;;29.95;17.00;;;;;;;;;;5094349;28;20235;-68
2022/03/05 12:41:25;;;;;;;30.45;17.63;;;;;;;;;;5094772;28;20194;-68
2022/03/05 12:43:52;;;;;;;27.27;15.45;;;;;;;;;;5094540;28;20286;-68
2022/03/05 12:46:26;;;;;;;26.88;17.65;;;;;;;;;;5094383;28;20230;-68
2022/03/05 12:48:53;;;;;;;26.05;16.50;;;;;;;;;;5094424;28;20223;-68
2022/03/05 12:51:22;;;;;;;26.95;16.65;;;;;;;;;;5094923;28;20546;-69
2022/03/05 12:53:59;;;;;;;30.33;17.10;;;;;;;;;;5094409;28;20195;-69
2022/03/05 12:56:29;;;;;;;27.73;17.42;;;;;;;;;;5093960;28;20617;-68
2022/03/05 12:58:57;;;;;;;31.27;17.13;;;;;;;;;;5094148;28;20209;-69
2022/03/05 13:01:24;;;;;;;22.20;15.05;;;;;;;;;;5094047;28;20203;-68
2022/03/05 13:03:59;;;;;;;31.63;16.65;;;;;;;;;;5094345;28;20279;-68
2022/03/05 13:06:27;;;;;;;24.60;14.90;;;;;;;;;;5093774;28;20277;-67
2022/03/05 13:08:54;;;;;;;25.48;16.17;;;;;;;;;;5094102;28;20282;-68
2022/03/05 13:11:23;;;;;;;24.38;15.20;;;;;;;;;;5093397;28;20263;-68
2022/03/05 13:13:52;;;;;;;24.55;15.10;;;;;;;;;;5094087;28;20675;-68
2022/03/05 13:16:31;;;;;;;22.55;14.35;;;;;;;;;;5093649;28;20206;-68
2022/03/05 13:19:00;;;;;;;23.77;13.98;;;;;;;;;;5093767;28;20256;-68
2022/03/05 13:21:27;;;;;;;30.15;16.45;;;;;;;;;;5093748;28;20198;-68
2022/03/05 13:23:55;;;;;;;25.20;15.48;;;;;;;;;;5093911;28;20294;-67
2022/03/05 13:26:28;;;;;;;22.10;14.13;;;;;;;;;;5093762;28;20287;-67
2022/03/05 13:28:58;;;;;;;22.13;15.25;;;;;;;;;;5093486;28;20232;-68
2022/03/05 13:31:28;;;;;;;24.90;15.15;;;;;;;;;;5093549;28;20199;-67
2022/03/05 13:33:56;;;;;;;25.75;16.02;;;;;;;;;;5094298;28;20192;-67
2022/03/05 13:36:24;;;;;;;22.58;13.38;;;;;;;;;;5093355;28;20283;-68
2022/03/05 13:38:52;;;;;;;25.17;15.98;;;;;;;;;;5093296;28;20290;-68
2022/03/05 13:41:20;;;;;;;26.33;16.27;;;;;;;;;;5094273;28;20200;-68
2022/03/05 13:43:47;;;;;;;25.20;14.57;;;;;;;;;;5093677;28;20196;-67
2022/03/05 13:46:18;;;;;;;22.60;13.80;;;;;;;;;;5093688;28;20555;-67
2022/03/05 13:48:48;;;;;;;21.08;14.05;;;;;;;;;;5093127;28;20210;-67
2022/03/05 13:51:16;;;;;;;24.55;15.52;;;;;;;;;;5093999;28;20206;-67
2022/03/05 13:53:44;;;;;;;22.13;13.15;;;;;;;;;;5093534;28;20609;-68
2022/03/05 13:56:13;;;;;;;22.05;14.88;;;;;;;;;;5093354;28;20195;-68
2022/03/05 13:58:41;;;;;;;22.98;14.63;;;;;;;;;;5093118;28;20199;-67
2022/03/05 14:01:15;;;;;;;25.25;15.57;;;;;;;;;;5093395;28;20241;-68
2022/03/05 14:04:02;;;;;;;26.70;15.75;;;;;;;;;;5093903;28;20310;-68
2022/03/05 14:06:29;;;;;;;25.60;14.43;;;;;;;;;;5093407;28;20197;-69
2022/03/05 14:08:56;;;;;;;21.52;13.25;;;;;;;;;;5093043;28;20315;-68
2022/03/05 14:11:28;;;;;;;20.77;14.23;;;;;;;;;;5093061;28;20239;-68
2022/03/05 14:13:55;;;;;;;22.83;13.52;;;;;;;;;;5093333;28;20191;-69
2022/03/05 14:16:36;;;;;;;25.55;14.77;;;;;;;;;;5093027;28;20199;-69
2022/03/05 14:19:04;;;;;;;23.67;14.63;;;;;;;;;;5092867;28;20286;-69
2022/03/05 14:21:31;;;;;;;23.70;15.00;;;;;;;;;;5093459;28;20202;-69
2022/03/05 14:24:03;;;;;;;24.73;15.13;;;;;;;;;;5097295;28;20281;-67
2022/03/05 14:26:33;;;;;;;29.63;16.27;;;;;;;;;;5097031;28;20223;-69
2022/03/05 14:29:00;;;;;;;23.00;14.82;;;;;;;;;;5096641;28;20248;-68